createdAt,value
2024-03-24T04:55:45.961Z,3.58
2024-03-24T04:56:47.299Z,3.59
2024-03-24T04:57:48.646Z,3.55
2024-03-24T04:58:49.999Z,3.58
2024-03-24T04:59:51.366Z,3.62
2024-03-24T05:00:52.714Z,3.61
2024-03-24T05:01:54.056Z,3.58
2024-03-24T05:02:55.418Z,3.61
2024-03-24T05:03:56.773Z,3.64
2024-03-24T05:04:58.134Z,3.72
2024-03-24T05:05:59.471Z,3.77
2024-03-24T05:07:00.815Z,3.86
2024-03-24T05:08:02.173Z,3.93
2024-03-24T05:09:03.495Z,4.03
2024-03-24T05:10:04.875Z,4.10
2024-03-24T05:11:06.226Z,4.16
2024-03-24T05:12:07.566Z,4.19
2024-03-24T05:13:08.918Z,4.28
2024-03-24T05:14:10.279Z,4.28
2024-03-24T05:15:11.652Z,4.30
2024-03-24T05:16:13.013Z,4.35
2024-03-24T05:17:14.340Z,4.44
2024-03-24T05:18:15.677Z,4.53
2024-03-24T05:19:17.066Z,4.60
2024-03-24T05:20:18.392Z,4.67
2024-03-24T05:21:19.743Z,4.74
2024-03-24T05:22:21.072Z,4.78
2024-03-24T05:23:22.424Z,4.81
2024-03-24T05:24:23.785Z,4.83
2024-03-24T05:25:25.150Z,4.83
2024-03-24T05:26:26.478Z,4.83
2024-03-24T05:27:27.820Z,4.81
2024-03-24T05:28:32.744Z,4.88
2024-03-24T05:29:30.999Z,4.91
2024-03-24T05:30:32.356Z,4.93
2024-03-24T05:31:33.695Z,5.03
2024-03-24T05:32:35.049Z,5.11
2024-03-24T05:33:36.398Z,5.24
2024-03-24T05:34:37.736Z,5.34
2024-03-24T05:35:39.099Z,5.46
2024-03-24T05:36:40.461Z,5.61
2024-03-24T05:37:41.816Z,5.72
2024-03-24T05:38:43.174Z,5.83
2024-03-24T05:39:44.507Z,5.86
2024-03-24T05:40:45.866Z,5.94
2024-03-24T05:41:56.373Z,6.07
2024-03-24T05:42:48.911Z,6.11
2024-03-24T05:43:50.249Z,6.23
2024-03-24T05:44:51.617Z,6.37
2024-03-24T05:45:52.949Z,6.51
2024-03-24T05:46:54.307Z,6.50
2024-03-24T05:47:55.640Z,6.43
2024-03-24T05:48:57.025Z,6.37
2024-03-24T05:49:58.345Z,6.30
2024-03-24T05:50:59.695Z,6.23
2024-03-24T05:52:01.048Z,6.19
2024-03-24T05:53:02.401Z,6.12
2024-03-24T05:54:03.732Z,6.08
2024-03-24T05:55:05.071Z,6.05
2024-03-24T05:56:06.442Z,5.99
2024-03-24T05:57:07.849Z,5.98
2024-03-24T05:58:09.329Z,5.97
2024-03-24T05:59:10.663Z,5.91
2024-03-24T06:00:12.023Z,5.91
2024-03-24T06:01:13.410Z,5.91
2024-03-24T06:02:14.764Z,5.94
2024-03-24T06:03:16.081Z,5.93
2024-03-24T06:04:17.456Z,5.91
2024-03-24T06:05:18.811Z,5.90
2024-03-24T06:06:20.187Z,5.90
2024-03-24T06:07:21.530Z,5.84
2024-03-24T06:08:22.957Z,5.86
2024-03-24T06:09:24.260Z,5.82
2024-03-24T06:10:25.616Z,5.83
2024-03-24T06:11:27.025Z,5.86
2024-03-24T06:12:28.364Z,5.86
2024-03-24T06:13:29.716Z,5.83
2024-03-24T06:14:31.062Z,5.82
2024-03-24T06:15:32.403Z,5.80
2024-03-24T06:16:33.763Z,5.71
2024-03-24T06:17:35.110Z,5.69
2024-03-24T06:18:36.476Z,5.71
2024-03-24T06:19:37.824Z,5.72
2024-03-24T06:20:39.174Z,5.75
2024-03-24T06:21:40.531Z,5.79
2024-03-24T06:22:41.859Z,5.83
2024-03-24T06:23:43.191Z,5.86
2024-03-24T06:24:44.531Z,5.97
2024-03-24T06:25:45.869Z,6.04
2024-03-24T06:26:47.216Z,6.16
2024-03-24T06:27:48.554Z,6.32
2024-03-24T06:28:49.877Z,6.55
2024-03-24T06:29:51.242Z,6.76
2024-03-24T06:30:52.600Z,6.87
2024-03-24T06:31:53.978Z,6.95
2024-03-24T06:32:55.324Z,6.92
2024-03-24T06:33:56.666Z,6.88
2024-03-24T06:34:58.024Z,6.84
2024-03-24T06:35:59.419Z,6.87
2024-03-24T06:37:00.789Z,6.88
2024-03-24T06:38:02.130Z,6.95
2024-03-24T06:39:03.468Z,7.05
2024-03-24T06:40:04.834Z,7.36
2024-03-24T06:41:06.171Z,7.90
2024-03-24T06:42:07.560Z,8.70
2024-03-24T06:43:08.924Z,8.84
2024-03-24T06:44:10.255Z,8.89
2024-03-24T06:45:11.594Z,9.00
2024-03-24T06:46:12.948Z,8.94
2024-03-24T06:47:14.329Z,8.92
2024-03-24T06:48:15.663Z,8.87
2024-03-24T06:49:17.014Z,9.02
2024-03-24T06:50:18.355Z,9.55
2024-03-24T06:51:19.699Z,9.87
2024-03-24T06:52:21.072Z,9.92
2024-03-24T06:53:22.404Z,10.85
2024-03-24T06:54:23.770Z,12.12
2024-03-24T06:55:25.139Z,13.22
2024-03-24T06:56:26.468Z,13.84
2024-03-24T06:57:27.908Z,13.48
2024-03-24T06:58:29.232Z,12.49
2024-03-24T06:59:30.632Z,11.94
2024-03-24T07:00:33.884Z,11.43
2024-03-24T07:01:33.162Z,10.98
2024-03-24T07:02:34.523Z,10.62
2024-03-24T07:03:35.885Z,10.02
2024-03-24T07:04:37.227Z,9.43
2024-03-24T07:05:38.594Z,9.07
2024-03-24T07:06:39.932Z,9.03
2024-03-24T07:07:41.299Z,8.99
2024-03-24T07:08:42.640Z,8.87
2024-03-24T07:09:43.977Z,8.79
2024-03-24T07:10:45.359Z,8.76
2024-03-24T07:11:46.705Z,8.74
2024-03-24T07:12:48.040Z,8.79
2024-03-24T07:13:49.385Z,8.81
2024-03-24T07:14:50.721Z,8.89
2024-03-24T07:15:53.834Z,8.92
2024-03-24T07:16:54.115Z,8.88
2024-03-24T07:17:55.486Z,8.88
2024-03-24T07:18:56.817Z,9.00
2024-03-24T07:19:58.150Z,9.39
2024-03-24T07:20:59.493Z,10.02
2024-03-24T07:22:00.843Z,10.56
2024-03-24T07:23:02.222Z,10.88
2024-03-24T07:24:03.565Z,11.29
2024-03-24T07:25:04.926Z,11.63
2024-03-24T07:26:06.287Z,11.77
2024-03-24T07:27:07.632Z,11.80
2024-03-24T07:28:09.013Z,11.83
2024-03-24T07:29:10.366Z,11.98
2024-03-24T07:30:11.700Z,12.42
2024-03-24T07:31:13.112Z,12.70
2024-03-24T07:32:14.433Z,13.23
2024-03-24T07:33:15.816Z,13.67
2024-03-24T07:34:17.166Z,13.78
2024-03-24T07:35:18.501Z,13.98
2024-03-24T07:36:19.829Z,13.78
2024-03-24T07:37:21.159Z,13.91
2024-03-24T07:38:22.503Z,13.48
2024-03-24T07:39:23.855Z,13.23
2024-03-24T07:40:25.185Z,12.80
2024-03-24T07:41:26.535Z,12.53
2024-03-24T07:42:27.905Z,12.09
2024-03-24T07:43:29.278Z,11.75
2024-03-24T07:44:30.659Z,11.14
2024-03-24T07:45:32.023Z,10.83
2024-03-24T07:46:33.389Z,10.58
2024-03-24T07:47:34.763Z,10.23
2024-03-24T07:48:37.036Z,9.97
2024-03-24T07:49:38.754Z,9.75
2024-03-24T07:50:40.096Z,9.53
2024-03-24T07:51:41.440Z,9.36
2024-03-24T07:52:42.781Z,9.25
2024-03-24T07:53:44.156Z,9.09
2024-03-24T07:54:45.511Z,9.02
2024-03-24T07:55:46.855Z,8.99
2024-03-24T07:56:48.215Z,8.94
2024-03-24T07:57:49.562Z,8.85
2024-03-24T07:58:50.934Z,8.79
2024-03-24T07:59:52.291Z,8.76
2024-03-24T08:00:53.619Z,8.71
2024-03-24T08:01:54.971Z,8.60
2024-03-24T08:02:56.318Z,8.60
2024-03-24T08:03:57.683Z,8.60
2024-03-24T08:04:59.030Z,8.60
2024-03-24T08:06:00.442Z,8.60
2024-03-24T08:07:01.784Z,8.73
2024-03-24T08:08:03.151Z,8.97
2024-03-24T08:09:04.505Z,9.28
2024-03-24T08:10:05.909Z,9.50
2024-03-24T08:11:07.263Z,9.91
2024-03-24T08:12:08.639Z,10.05
2024-03-24T08:13:09.971Z,9.87
2024-03-24T08:14:11.321Z,10.34
2024-03-24T08:15:12.693Z,11.03
2024-03-24T08:16:14.026Z,11.48
2024-03-24T08:17:15.385Z,11.70
2024-03-24T08:18:16.736Z,11.75
2024-03-24T08:19:18.236Z,11.81
2024-03-24T08:20:19.579Z,12.17
2024-03-24T08:21:20.924Z,12.64
2024-03-24T08:22:22.286Z,13.13
2024-03-24T08:23:23.620Z,13.19
2024-03-24T08:24:25.004Z,13.30
2024-03-24T08:25:26.399Z,13.34
2024-03-24T08:26:27.731Z,13.51
2024-03-24T08:27:29.086Z,13.53
2024-03-24T08:28:30.446Z,12.97
2024-03-24T08:29:31.843Z,12.35
2024-03-24T08:30:33.211Z,11.90
2024-03-24T08:31:34.579Z,11.91
2024-03-24T08:32:35.975Z,11.59
2024-03-24T08:33:37.300Z,11.17
2024-03-24T08:34:38.674Z,10.56
2024-03-24T08:35:40.043Z,10.05
2024-03-24T08:36:41.398Z,9.58
2024-03-24T08:37:42.740Z,9.31
2024-03-24T08:38:44.113Z,9.12
2024-03-24T08:39:46.075Z,9.06
2024-03-24T08:40:47.401Z,9.03
2024-03-24T08:41:48.755Z,9.12
2024-03-24T08:42:50.107Z,9.21
2024-03-24T08:43:51.470Z,9.22
2024-03-24T08:44:52.821Z,9.12
2024-03-24T08:45:54.154Z,8.94
2024-03-24T08:46:55.519Z,8.78
2024-03-24T08:47:56.883Z,8.58
2024-03-24T08:48:58.227Z,8.49
2024-03-24T08:49:59.589Z,8.33
2024-03-24T08:51:00.921Z,8.22
2024-03-24T08:52:02.279Z,8.14
2024-03-24T08:53:03.593Z,8.04
2024-03-24T08:54:04.933Z,7.94
2024-03-24T08:55:06.320Z,7.81
2024-03-24T08:56:07.656Z,7.72
2024-03-24T08:57:09.001Z,7.68
2024-03-24T08:58:10.374Z,7.63
2024-03-24T08:59:11.768Z,7.61
2024-03-24T09:00:13.178Z,7.53
2024-03-24T09:01:14.538Z,7.45
2024-03-24T09:02:15.888Z,7.32
2024-03-24T09:03:17.225Z,7.18
2024-03-24T09:04:18.585Z,7.17
2024-03-24T09:05:19.950Z,7.14
2024-03-24T09:06:21.296Z,7.06
2024-03-24T09:07:22.659Z,7.05
2024-03-24T09:08:23.993Z,6.96
2024-03-24T09:09:25.342Z,6.96
2024-03-24T09:10:26.785Z,6.95
2024-03-24T09:11:28.169Z,6.92
2024-03-24T09:12:29.491Z,6.95
2024-03-24T09:13:30.829Z,6.92
2024-03-24T09:14:32.168Z,6.88
2024-03-24T09:15:33.550Z,6.84
2024-03-24T09:16:37.717Z,6.81
2024-03-24T09:17:36.966Z,6.87
2024-03-24T09:18:38.310Z,6.92
2024-03-24T09:19:39.653Z,6.99
2024-03-24T09:20:41.970Z,7.03
2024-03-24T09:21:42.202Z,7.11
2024-03-24T09:22:43.556Z,7.14
2024-03-24T09:23:44.920Z,7.21
2024-03-24T09:24:46.267Z,7.24
2024-03-24T09:25:47.658Z,7.29
2024-03-24T09:26:48.980Z,7.33
2024-03-24T09:27:50.321Z,7.40
2024-03-24T09:28:51.664Z,7.43
2024-03-24T09:29:53.009Z,7.43
2024-03-24T09:30:54.373Z,7.39
2024-03-24T09:31:55.730Z,7.36
2024-03-24T09:32:57.062Z,7.38
2024-03-24T09:33:58.423Z,7.35
2024-03-24T09:35:08.429Z,7.33
2024-03-24T09:36:01.641Z,7.33
2024-03-24T09:37:03.031Z,7.36
2024-03-24T09:38:04.354Z,7.38
2024-03-24T09:39:05.717Z,7.43
2024-03-24T09:40:07.074Z,7.43
2024-03-24T09:41:08.448Z,7.43
2024-03-24T09:42:09.813Z,7.48
2024-03-24T09:43:11.170Z,7.57
2024-03-24T09:44:12.538Z,7.57
2024-03-24T09:45:13.870Z,7.61
2024-03-24T09:46:15.248Z,7.63
2024-03-24T09:47:16.608Z,7.61
2024-03-24T09:48:17.949Z,7.63
2024-03-24T09:49:19.265Z,7.65
2024-03-24T09:50:20.624Z,7.65
2024-03-24T09:51:21.989Z,7.66
2024-03-24T09:52:23.375Z,7.68
2024-03-24T09:53:24.695Z,7.71
2024-03-24T09:54:26.030Z,7.71
2024-03-24T09:55:27.401Z,7.65
2024-03-24T09:56:28.741Z,7.63
2024-03-24T09:57:30.093Z,7.61
2024-03-24T09:58:31.457Z,7.57
2024-03-24T09:59:32.822Z,7.50
2024-03-24T10:00:34.165Z,7.43
2024-03-24T10:01:35.551Z,7.39
2024-03-24T10:02:36.883Z,7.38
2024-03-24T10:03:38.243Z,7.40
2024-03-24T10:04:39.573Z,7.42
2024-03-24T10:05:40.903Z,7.40
2024-03-24T10:06:42.272Z,7.43
2024-03-24T10:07:43.628Z,7.43
2024-03-24T10:08:44.995Z,7.47
2024-03-24T10:09:46.331Z,7.48
2024-03-24T10:10:47.656Z,7.47
2024-03-24T10:11:49.003Z,7.43
2024-03-24T10:12:50.356Z,7.40
2024-03-24T10:13:51.706Z,7.40
2024-03-24T10:14:53.027Z,7.39
2024-03-24T10:15:54.370Z,7.40
2024-03-24T10:16:55.732Z,7.47
2024-03-24T10:17:57.084Z,7.45
2024-03-24T10:18:58.413Z,7.39
2024-03-24T10:19:59.789Z,7.38
2024-03-24T10:21:01.129Z,7.35
2024-03-24T10:22:02.495Z,7.29
2024-03-24T10:23:03.819Z,7.24
2024-03-24T10:24:05.188Z,7.21
2024-03-24T10:25:06.532Z,7.17
2024-03-24T10:26:07.881Z,7.15
2024-03-24T10:27:09.237Z,7.15
2024-03-24T10:28:10.581Z,7.17
2024-03-24T10:29:11.934Z,7.17
2024-03-24T10:30:13.274Z,7.18
2024-03-24T10:31:14.630Z,7.20
2024-03-24T10:32:26.885Z,7.25
2024-03-24T10:33:17.852Z,7.24
2024-03-24T10:34:19.213Z,7.28
2024-03-24T10:35:20.587Z,7.29
2024-03-24T10:36:21.955Z,7.25
2024-03-24T10:37:23.311Z,7.25
2024-03-24T10:38:24.669Z,7.29
2024-03-24T10:39:26.023Z,7.32
2024-03-24T10:40:27.363Z,7.33
2024-03-24T10:41:28.694Z,7.39
2024-03-24T10:42:30.062Z,7.38
2024-03-24T10:43:31.400Z,7.42
2024-03-24T10:44:32.806Z,7.40
2024-03-24T10:45:34.147Z,7.48
2024-03-24T10:46:35.490Z,7.53
2024-03-24T10:47:36.862Z,7.54
2024-03-24T10:48:47.495Z,7.58
2024-03-24T10:49:40.944Z,7.68
2024-03-24T10:50:41.167Z,7.69
2024-03-24T10:51:42.525Z,7.79
2024-03-24T10:52:43.884Z,7.92
2024-03-24T10:53:45.235Z,8.00
2024-03-24T10:54:46.591Z,8.08
2024-03-24T10:55:47.944Z,8.09
2024-03-24T10:56:49.272Z,8.09
2024-03-24T10:57:50.631Z,8.09
2024-03-24T10:58:51.996Z,8.09
2024-03-24T10:59:53.358Z,8.09
2024-03-24T11:00:54.728Z,8.12
2024-03-24T11:01:56.061Z,8.14
2024-03-24T11:02:57.451Z,8.17
2024-03-24T11:03:58.797Z,8.17
2024-03-24T11:05:00.176Z,8.18
2024-03-24T11:06:01.582Z,8.15
2024-03-24T11:07:02.915Z,8.22
2024-03-24T11:08:04.266Z,8.15
2024-03-24T11:09:05.628Z,8.11
2024-03-24T11:10:06.963Z,8.09
2024-03-24T11:11:08.302Z,8.08
2024-03-24T11:12:09.659Z,8.04
2024-03-24T11:13:11.062Z,8.05
2024-03-24T11:14:12.457Z,8.05
2024-03-24T11:15:13.814Z,8.11
2024-03-24T11:16:15.154Z,8.12
2024-03-24T11:17:16.495Z,8.12
2024-03-24T11:18:17.871Z,8.19
2024-03-24T11:19:19.229Z,8.29
2024-03-24T11:20:20.557Z,8.29
2024-03-24T11:21:21.916Z,8.33
2024-03-24T11:22:23.280Z,8.33
2024-03-24T11:23:24.653Z,8.35
2024-03-24T11:24:25.982Z,8.35
2024-03-24T11:25:27.374Z,8.35
2024-03-24T11:26:28.672Z,8.30
2024-03-24T11:27:30.019Z,8.27
2024-03-24T11:28:31.379Z,8.30
2024-03-24T11:29:32.711Z,8.32
2024-03-24T11:30:34.049Z,8.27
2024-03-24T11:31:35.405Z,8.32
2024-03-24T11:32:36.779Z,8.41
2024-03-24T11:33:38.118Z,8.46
2024-03-24T11:34:39.469Z,8.45
2024-03-24T11:35:40.832Z,8.48
2024-03-24T11:36:42.174Z,8.48
2024-03-24T11:37:44.026Z,8.49
2024-03-24T11:38:45.376Z,8.51
2024-03-24T11:39:46.691Z,8.51
2024-03-24T11:40:50.669Z,8.55
2024-03-24T11:41:50.195Z,8.53
2024-03-24T11:42:51.549Z,8.63
2024-03-24T11:43:52.917Z,8.56
2024-03-24T11:44:54.278Z,8.53
2024-03-24T11:45:55.639Z,8.55
2024-03-24T11:46:56.990Z,8.63
2024-03-24T11:47:58.328Z,8.70
2024-03-24T11:48:59.693Z,8.71
2024-03-24T11:50:01.054Z,8.70
2024-03-24T11:51:02.412Z,8.71
2024-03-24T11:52:03.759Z,8.73
2024-03-24T11:53:05.099Z,8.76
2024-03-24T11:54:06.456Z,8.79
2024-03-24T11:55:07.800Z,8.88
2024-03-24T11:56:09.142Z,8.94
2024-03-24T11:57:10.499Z,9.00
2024-03-24T11:58:11.825Z,9.04
2024-03-24T11:59:13.210Z,9.07
2024-03-24T12:00:14.545Z,9.03
2024-03-24T12:01:15.889Z,8.97
2024-03-24T12:02:17.221Z,8.89
2024-03-24T12:03:18.549Z,8.84
2024-03-24T12:04:19.982Z,8.84
2024-03-24T12:05:21.363Z,8.79
2024-03-24T12:06:22.720Z,8.82
2024-03-24T12:07:24.059Z,8.76
2024-03-24T12:08:25.405Z,8.70
2024-03-24T12:09:26.785Z,8.61
2024-03-24T12:10:28.166Z,8.53
2024-03-24T12:11:29.487Z,8.45
2024-03-24T12:12:30.832Z,8.42
2024-03-24T12:13:32.186Z,8.45
2024-03-24T12:14:33.521Z,8.45
2024-03-24T12:15:34.869Z,8.41
2024-03-24T12:16:36.213Z,8.41
2024-03-24T12:17:37.542Z,8.38
2024-03-24T12:18:38.893Z,8.41
2024-03-24T12:19:40.271Z,8.42
2024-03-24T12:20:41.633Z,8.44
2024-03-24T12:21:42.972Z,8.48
2024-03-24T12:22:44.301Z,8.52
2024-03-24T12:23:45.692Z,8.53
2024-03-24T12:24:47.028Z,8.60
2024-03-24T12:25:48.347Z,8.58
2024-03-24T12:26:49.721Z,8.58
2024-03-24T12:27:51.996Z,8.56
2024-03-24T12:28:52.260Z,8.52
2024-03-24T12:29:53.623Z,8.49
2024-03-24T12:30:54.984Z,8.51
2024-03-24T12:31:56.338Z,8.52
2024-03-24T12:32:57.672Z,8.51
2024-03-24T12:33:59.019Z,8.53
2024-03-24T12:35:00.408Z,8.56
2024-03-24T12:36:01.730Z,8.61
2024-03-24T12:37:03.059Z,8.67
2024-03-24T12:38:04.413Z,8.70
2024-03-24T12:39:05.762Z,8.70
2024-03-24T12:40:07.259Z,8.74
2024-03-24T12:41:08.585Z,8.85
2024-03-24T12:42:09.949Z,8.95
2024-03-24T12:43:11.295Z,9.03
2024-03-24T12:44:12.636Z,9.20
2024-03-24T12:45:13.989Z,9.31
2024-03-24T12:46:15.329Z,9.46
2024-03-24T12:47:16.695Z,9.57
2024-03-24T12:48:18.019Z,9.71
2024-03-24T12:49:19.388Z,9.86
2024-03-24T12:50:31.670Z,9.92
2024-03-24T12:51:22.584Z,9.98
2024-03-24T12:52:23.954Z,10.01
2024-03-24T12:53:25.340Z,10.02
2024-03-24T12:54:26.671Z,10.02
2024-03-24T12:55:28.063Z,10.12
2024-03-24T12:56:29.400Z,10.19
2024-03-24T12:57:30.755Z,10.12
2024-03-24T12:58:32.128Z,9.97
2024-03-24T12:59:33.455Z,9.94
2024-03-24T13:00:34.831Z,9.99
2024-03-24T13:01:36.211Z,10.15
2024-03-24T13:02:37.780Z,10.16
2024-03-24T13:03:39.124Z,10.19
2024-03-24T13:04:40.546Z,10.22
2024-03-24T13:05:41.938Z,10.25
2024-03-24T13:06:43.309Z,10.33
2024-03-24T13:07:44.709Z,10.28
2024-03-24T13:08:46.121Z,10.23
2024-03-24T13:09:47.473Z,10.20
2024-03-24T13:10:48.857Z,10.23
2024-03-24T13:11:50.215Z,10.22
2024-03-24T13:12:51.602Z,10.17
2024-03-24T13:13:52.961Z,10.16
2024-03-24T13:14:54.315Z,10.16
2024-03-24T13:15:55.724Z,10.15
2024-03-24T13:16:57.149Z,10.05
2024-03-24T13:18:00.961Z,9.86
2024-03-24T13:19:00.025Z,9.79
2024-03-24T13:20:01.500Z,9.68
2024-03-24T13:21:02.974Z,9.55
2024-03-24T13:22:04.316Z,9.58
2024-03-24T13:23:05.643Z,9.63
2024-03-24T13:24:06.992Z,9.71
2024-03-24T13:25:08.342Z,9.76
2024-03-24T13:26:09.730Z,9.86
2024-03-24T13:27:11.071Z,9.92
2024-03-24T13:28:12.419Z,9.97
2024-03-24T13:29:13.762Z,9.99
2024-03-24T13:30:15.083Z,9.97
2024-03-24T13:31:16.453Z,9.89
2024-03-24T13:32:17.825Z,9.80
2024-03-24T13:33:19.170Z,9.71
2024-03-24T13:34:20.501Z,9.65
2024-03-24T13:35:21.875Z,9.65
2024-03-24T13:36:23.231Z,9.67
2024-03-24T13:37:24.626Z,9.68
2024-03-24T13:38:25.970Z,9.65
2024-03-24T13:39:27.313Z,9.63
2024-03-24T13:40:28.699Z,9.58
2024-03-24T13:41:30.054Z,9.54
2024-03-24T13:42:31.416Z,9.49
2024-03-24T13:43:32.788Z,9.50
2024-03-24T13:44:34.125Z,9.54
2024-03-24T13:45:35.466Z,9.55
2024-03-24T13:46:36.852Z,9.58
2024-03-24T13:47:38.191Z,9.61
2024-03-24T13:48:39.534Z,9.60
2024-03-24T13:49:40.860Z,9.60
2024-03-24T13:50:42.229Z,9.61
2024-03-24T13:51:43.585Z,9.63
2024-03-24T13:52:44.936Z,9.63
2024-03-24T13:53:46.303Z,9.63
2024-03-24T13:54:47.682Z,9.64
2024-03-24T13:55:49.013Z,9.73
2024-03-24T13:56:50.354Z,9.80
2024-03-24T13:57:51.698Z,9.83
2024-03-24T13:58:53.044Z,9.94
2024-03-24T13:59:54.406Z,10.04
2024-03-24T14:00:55.767Z,10.16
2024-03-24T14:01:57.140Z,10.22
2024-03-24T14:02:58.486Z,10.26
2024-03-24T14:03:59.848Z,10.31
2024-03-24T14:05:01.200Z,10.30
2024-03-24T14:06:02.577Z,10.34
2024-03-24T14:07:05.778Z,10.35
2024-03-24T14:08:05.043Z,10.38
2024-03-24T14:09:06.439Z,10.38
2024-03-24T14:10:07.799Z,10.40
2024-03-24T14:11:09.179Z,10.42
2024-03-24T14:12:10.581Z,10.53
2024-03-24T14:13:11.942Z,10.55
2024-03-24T14:14:13.293Z,10.50
2024-03-24T14:15:14.642Z,10.46
2024-03-24T14:16:15.984Z,10.44
2024-03-24T14:17:17.349Z,10.49
2024-03-24T14:18:18.697Z,10.48
2024-03-24T14:19:20.059Z,10.49
2024-03-24T14:20:21.425Z,10.46
2024-03-24T14:21:22.766Z,10.40
2024-03-24T14:22:24.121Z,10.40
2024-03-24T14:23:25.465Z,10.37
2024-03-24T14:24:26.834Z,10.33
2024-03-24T14:25:28.185Z,10.25
2024-03-24T14:26:29.589Z,10.22
2024-03-24T14:27:30.939Z,10.23
2024-03-24T14:28:32.305Z,10.25
2024-03-24T14:29:33.691Z,10.25
2024-03-24T14:30:35.039Z,10.28
2024-03-24T14:31:36.456Z,10.31
2024-03-24T14:32:37.796Z,10.31
2024-03-24T14:33:39.139Z,10.33
2024-03-24T14:34:40.505Z,10.30
2024-03-24T14:35:41.880Z,10.30
2024-03-24T14:36:43.308Z,10.31
2024-03-24T14:37:44.636Z,10.34
2024-03-24T14:38:45.998Z,10.30
2024-03-24T14:39:47.348Z,10.22
2024-03-24T14:40:48.712Z,10.19
2024-03-24T14:41:50.065Z,10.20
2024-03-24T14:42:51.456Z,10.30
2024-03-24T14:43:52.814Z,10.35
2024-03-24T14:44:54.161Z,10.37
2024-03-24T14:45:55.516Z,10.33
2024-03-24T14:46:56.881Z,10.31
2024-03-24T14:47:58.275Z,10.23
2024-03-24T14:49:01.764Z,10.09
2024-03-24T14:50:01.270Z,9.94
2024-03-24T14:51:02.664Z,9.86
2024-03-24T14:52:03.993Z,9.80
2024-03-24T14:53:05.356Z,9.73
2024-03-24T14:54:06.692Z,9.71
2024-03-24T14:55:08.084Z,9.67
2024-03-24T14:56:09.448Z,9.61
2024-03-24T14:57:10.767Z,9.55
2024-03-24T14:58:12.131Z,9.50
2024-03-24T14:59:13.518Z,9.39
2024-03-24T15:00:14.867Z,9.31
2024-03-24T15:01:16.197Z,9.21
2024-03-24T15:02:17.531Z,9.12
2024-03-24T15:03:18.890Z,9.06
2024-03-24T15:04:20.252Z,8.97
2024-03-24T15:05:21.602Z,8.88
2024-03-24T15:06:22.926Z,8.76
2024-03-24T15:07:24.288Z,8.70
2024-03-24T15:08:25.653Z,8.70
2024-03-24T15:09:27.001Z,8.71
2024-03-24T15:10:28.319Z,8.69
2024-03-24T15:11:29.679Z,8.71
2024-03-24T15:12:31.025Z,8.71
2024-03-24T15:13:32.384Z,8.78
2024-03-24T15:14:33.740Z,8.82
2024-03-24T15:15:35.120Z,8.91
2024-03-24T15:16:36.488Z,8.97
2024-03-24T15:17:37.830Z,9.04
2024-03-24T15:18:39.198Z,9.10
2024-03-24T15:19:40.545Z,9.17
2024-03-24T15:20:41.916Z,9.24
2024-03-24T15:21:43.273Z,9.27
2024-03-24T15:22:44.617Z,9.25
2024-03-24T15:23:45.983Z,9.24
2024-03-24T15:24:47.352Z,9.25
2024-03-24T15:25:48.701Z,9.30
2024-03-24T15:26:50.048Z,9.27
2024-03-24T15:27:51.414Z,9.31
2024-03-24T15:28:52.761Z,9.27
2024-03-24T15:29:57.123Z,9.27
2024-03-24T15:30:55.942Z,9.28
2024-03-24T15:31:57.280Z,9.27
2024-03-24T15:32:58.644Z,9.28
2024-03-24T15:34:00.028Z,9.28
2024-03-24T15:35:01.377Z,9.27
2024-03-24T15:36:02.735Z,9.25
2024-03-24T15:37:04.088Z,9.20
2024-03-24T15:38:05.436Z,9.20
2024-03-24T15:39:06.826Z,9.17
2024-03-24T15:40:08.160Z,9.10
2024-03-24T15:41:09.577Z,9.09
2024-03-24T15:42:10.927Z,9.07
2024-03-24T15:43:12.283Z,9.07
2024-03-24T15:44:13.708Z,9.06
2024-03-24T15:45:15.012Z,9.06
2024-03-24T15:46:16.346Z,9.07
2024-03-24T15:47:17.698Z,9.04
2024-03-24T15:48:19.033Z,8.97
2024-03-24T15:49:20.391Z,8.91
2024-03-24T15:50:21.733Z,8.89
2024-03-24T15:51:23.068Z,8.88
2024-03-24T15:52:24.428Z,8.87
2024-03-24T15:53:25.799Z,8.85
2024-03-24T15:54:27.164Z,8.88
2024-03-24T15:55:34.566Z,8.85
2024-03-24T15:56:30.385Z,8.82
2024-03-24T15:57:31.784Z,8.81
2024-03-24T15:58:33.127Z,8.78
2024-03-24T15:59:34.476Z,8.76
2024-03-24T16:00:35.826Z,8.73
2024-03-24T16:01:37.211Z,8.71
2024-03-24T16:02:38.579Z,8.71
2024-03-24T16:03:39.941Z,8.70
2024-03-24T16:04:41.814Z,8.71
2024-03-24T16:05:43.183Z,8.71
2024-03-24T16:06:44.526Z,8.70
2024-03-24T16:07:45.873Z,8.64
2024-03-24T16:08:47.229Z,8.63
2024-03-24T16:09:48.644Z,8.58
2024-03-24T16:10:49.989Z,8.58
2024-03-24T16:11:51.348Z,8.53
2024-03-24T16:12:52.741Z,8.53
2024-03-24T16:13:54.675Z,8.56
2024-03-24T16:14:56.043Z,8.55
2024-03-24T16:15:57.350Z,8.53
2024-03-24T16:16:58.715Z,8.52
2024-03-24T16:18:00.073Z,8.51
2024-03-24T16:19:01.450Z,8.46
2024-03-24T16:20:02.844Z,8.44
2024-03-24T16:21:04.186Z,8.41
2024-03-24T16:22:05.550Z,8.37
2024-03-24T16:23:06.862Z,8.29
2024-03-24T16:24:08.230Z,8.25
2024-03-24T16:25:09.569Z,8.18
2024-03-24T16:26:10.930Z,8.08
2024-03-24T16:27:12.272Z,7.99
2024-03-24T16:28:13.610Z,7.92
2024-03-24T16:29:14.958Z,7.81
2024-03-24T16:30:16.338Z,7.76
2024-03-24T16:31:17.669Z,7.69
2024-03-24T16:32:19.009Z,7.65
2024-03-24T16:33:20.372Z,7.58
2024-03-24T16:34:21.734Z,7.56
2024-03-24T16:35:23.070Z,7.53
2024-03-24T16:36:24.470Z,7.57
2024-03-24T16:37:25.793Z,7.60
2024-03-24T16:38:27.173Z,7.61
2024-03-24T16:39:28.481Z,7.63
2024-03-24T16:40:29.861Z,7.61
2024-03-24T16:41:31.236Z,7.57
2024-03-24T16:42:32.611Z,7.54
2024-03-24T16:43:33.967Z,7.53
2024-03-24T16:44:35.314Z,7.54
2024-03-24T16:45:36.697Z,7.47
2024-03-24T16:46:38.057Z,7.51
2024-03-24T16:47:39.406Z,7.51
2024-03-24T16:48:40.767Z,7.53
2024-03-24T16:49:42.109Z,7.54
2024-03-24T16:50:43.469Z,7.57
2024-03-24T16:51:44.776Z,7.58
2024-03-24T16:52:46.098Z,7.57
2024-03-24T16:53:47.476Z,7.56
2024-03-24T16:54:48.824Z,7.56
2024-03-24T16:55:50.189Z,7.54
2024-03-24T16:56:51.540Z,7.54
2024-03-24T16:57:52.904Z,7.56
2024-03-24T16:58:54.265Z,7.54
2024-03-24T16:59:55.594Z,7.54
2024-03-24T17:00:56.964Z,7.51
2024-03-24T17:01:58.310Z,7.47
2024-03-24T17:02:59.640Z,7.47
2024-03-24T17:04:00.998Z,7.47
2024-03-24T17:05:02.362Z,7.47
2024-03-24T17:06:03.691Z,7.50
2024-03-24T17:07:05.028Z,7.51
2024-03-24T17:08:06.366Z,7.50
2024-03-24T17:09:07.734Z,7.51
2024-03-24T17:10:09.087Z,7.53
2024-03-24T17:11:10.490Z,7.56
2024-03-24T17:12:11.809Z,7.53
2024-03-24T17:13:13.147Z,7.53
2024-03-24T17:14:14.489Z,7.53
2024-03-24T17:15:15.812Z,7.53
2024-03-24T17:16:17.177Z,7.57
2024-03-24T17:17:18.541Z,7.57
2024-03-24T17:18:19.879Z,7.61
2024-03-24T17:19:21.219Z,7.60
2024-03-24T17:20:22.568Z,7.58
2024-03-24T17:21:23.947Z,7.57
2024-03-24T17:22:25.287Z,7.58
2024-03-24T17:23:26.653Z,7.53
2024-03-24T17:24:27.993Z,7.54
